Date,TemperatureHighF,TemperatureAvgF,TemperatureLowF,DewpointHighF,DewpointAvgF,DewpointLowF,HumidityHigh,HumidityAvg,HumidityLow,PressureMaxIn,PressureMinIn,WindSpeedMaxMPH,WindSpeedAvgMPH,GustSpeedMaxMPH,PrecipitationSumIn
2013-2-1,73,61,51,57,50,39,80,66,55,30.25,30.14,6,1,11,0.00
2013-2-2,73,62,51,55,50,39,93,66,48,30.24,30.10,7,1,10,0.00
2013-2-3,75,61,50,55,50,40,97,71,30,30.15,30.05,4,0,12,0.00
2013-2-4,77,61,46,57,49,43,94,70,34,30.13,30.01,6,1,13,0.00
2013-2-5,80,66,51,65,59,50,99,80,50,30.06,29.98,6,1,9,0.00
2013-2-6,80,69,58,68,63,57,99,82,62,30.09,30.00,5,1,9,0.00
2013-2-7,82,71,60,68,64,59,98,79,56,30.05,29.92,6,1,12,0.00
2013-2-8,84,74,65,72,68,61,96,84,63,30.01,29.89,7,1,10,0.00
2013-2-9,80,70,59,69,63,57,99,81,65,30.15,30.00,13,2,14,0.00
2013-2-10,75,70,64,66,63,58,90,76,70,30.24,30.13,9,3,15,0.04
2013-2-11,77,69,62,67,63,60,94,81,70,30.20,30.14,7,1,11,0.04
2013-2-12,88,77,68,71,68,64,93,75,45,30.01,29.95,8,2,12,0.00
2013-2-13,88,79,65,73,70,64,97,75,53,29.99,29.87,9,2,16,0.00
2013-2-14,82,70,62,73,68,61,98,91,73,30.00,29.84,7,1,16,0.73
2013-2-15,72,66,62,69,65,62,99,96,85,30.00,29.92,4,0,7,0.25
2013-2-16,71,63,54,65,58,47,99,86,55,30.06,29.86,6,1,20,0.25
2013-2-17,59,51,44,46,32,22,78,50,28,30.29,30.06,8,0,14,0.00
2013-2-18,68,59,44,58,46,34,78,64,49,30.30,30.18,14,2,16,0.00
2013-2-19,78,70,56,68,62,54,96,77,64,30.18,30.06,6,1,15,0.22
2013-2-20,79,70,63,68,65,61,99,86,54,30.09,29.99,7,0,10,0.23
2013-2-21,81,71,62,70,65,61,99,85,64,30.07,29.98,7,1,11,0.00
2013-2-22,81,76,71,73,71,69,93,83,70,30.08,30.00,10,2,16,0.00
2013-2-23,86,78,72,74,71,69,93,81,61,30.03,29.89,8,1,12,0.00
2013-2-24,91,78,71,74,71,66,98,80,46,29.98,29.87,5,0,9,0.00
2013-2-25,84,75,67,75,70,66,98,86,67,29.90,29.79,8,1,13,0.06
2013-2-26,87,79,74,74,72,70,93,79,59,29.88,29.78,10,2,20,0.06
2013-2-27,77,70,64,74,67,63,98,89,67,29.95,29.84,4,1,9,0.37
2013-2-28,70,64,59,64,56,50,97,78,56,29.99,29.89,6,1,11,0.37